createdAt,value
2023-03-10T00:00:16.598Z,31.47
2023-03-10T00:02:49.385Z,30.80
2023-03-10T00:05:18.428Z,31.17
2023-03-10T00:07:50.245Z,29.77
2023-03-10T00:10:18.226Z,31.53
2023-03-10T00:12:45.080Z,26.00
2023-03-10T00:15:12.893Z,30.67
2023-03-10T00:17:39.748Z,25.63
2023-03-10T00:20:08.177Z,27.40
2023-03-10T00:22:39.226Z,30.70
2023-03-10T00:25:07.389Z,29.83
2023-03-10T00:27:34.260Z,21.97
2023-03-10T00:30:01.184Z,36.30
2023-03-10T00:32:28.031Z,30.07
2023-03-10T00:34:54.831Z,31.77
2023-03-10T00:37:21.624Z,33.30
2023-03-10T00:39:52.879Z,34.10
2023-03-10T00:42:20.288Z,29.37
2023-03-10T00:44:47.568Z,33.47
2023-03-10T00:47:14.648Z,32.43
2023-03-10T00:49:41.427Z,31.53
2023-03-10T00:52:08.242Z,28.77
2023-03-10T00:54:34.929Z,32.33
2023-03-10T00:57:01.745Z,27.83
2023-03-10T00:59:32.811Z,25.87
2023-03-10T01:02:05.268Z,31.73
2023-03-10T01:04:32.075Z,31.80
2023-03-10T01:06:58.806Z,28.70
2023-03-10T01:09:25.531Z,28.93
2023-03-10T01:11:52.252Z,25.83
2023-03-10T01:14:19.681Z,33.47
2023-03-10T01:16:46.348Z,31.87
2023-03-10T01:19:13.037Z,34.60
2023-03-10T01:21:40.195Z,28.10
2023-03-10T01:24:08.156Z,28.43
2023-03-10T01:26:35.398Z,26.93
2023-03-10T01:29:02.175Z,27.87
2023-03-10T01:31:29.024Z,25.27
2023-03-10T01:33:55.768Z,28.07
2023-03-10T01:36:26.180Z,29.37
2023-03-10T01:38:55.393Z,37.53
2023-03-10T01:41:22.951Z,29.47
2023-03-10T01:43:52.942Z,32.27
2023-03-10T01:46:35.865Z,34.23
2023-03-10T01:49:18.891Z,29.27
2023-03-10T01:51:50.258Z,32.20
2023-03-10T01:54:22.611Z,26.10
2023-03-10T01:56:52.117Z,27.20
2023-03-10T01:59:20.364Z,34.43
2023-03-10T02:01:47.646Z,32.77
2023-03-10T02:04:24.902Z,33.37
2023-03-10T02:06:52.064Z,26.63
2023-03-10T02:09:20.868Z,27.43
2023-03-10T02:11:49.384Z,32.30
2023-03-10T02:14:16.525Z,24.60
2023-03-10T02:16:50.988Z,26.73
2023-03-10T02:19:35.916Z,27.73
2023-03-10T02:22:08.653Z,31.73
2023-03-10T02:24:40.929Z,30.60
2023-03-10T02:27:25.937Z,28.23
2023-03-10T02:30:02.451Z,22.20
2023-03-10T02:32:32.777Z,28.00
2023-03-10T02:34:59.521Z,27.23
2023-03-10T02:37:30.072Z,25.77
2023-03-10T02:39:57.178Z,29.20
2023-03-10T02:42:28.163Z,22.73
2023-03-10T02:44:55.725Z,27.67
2023-03-10T02:47:22.809Z,25.20
2023-03-10T02:49:49.553Z,26.73
2023-03-10T02:52:38.016Z,32.83
2023-03-10T02:55:05.123Z,25.90
2023-03-10T02:57:31.774Z,33.93
2023-03-10T02:59:58.522Z,28.47
2023-03-10T03:02:25.430Z,33.27
2023-03-10T03:04:52.098Z,25.33
2023-03-10T03:07:18.875Z,35.17
2023-03-10T03:09:46.650Z,31.00
2023-03-10T03:12:13.356Z,33.73
2023-03-10T03:14:40.116Z,41.57
2023-03-10T03:17:06.826Z,36.63
2023-03-10T03:19:33.471Z,41.53
2023-03-10T03:22:00.875Z,39.57
2023-03-10T03:24:27.815Z,43.70
2023-03-10T03:26:54.578Z,47.73
2023-03-10T03:29:21.377Z,42.03
2023-03-10T03:31:48.524Z,37.13
2023-03-10T03:34:15.640Z,38.17
2023-03-10T03:36:42.296Z,43.03
2023-03-10T03:39:09.139Z,43.30
2023-03-10T03:41:35.969Z,44.97
2023-03-10T03:44:02.641Z,42.70
2023-03-10T03:46:29.487Z,45.87
2023-03-10T03:48:56.211Z,47.53
2023-03-10T03:51:22.876Z,44.17
2023-03-10T03:53:49.609Z,51.43
2023-03-10T03:56:16.350Z,59.40
2023-03-10T03:58:43.051Z,54.23
2023-03-10T04:01:10.013Z,54.43
2023-03-10T04:03:36.883Z,53.70
2023-03-10T04:06:03.743Z,48.63
2023-03-10T04:08:30.575Z,60.40
2023-03-10T04:10:57.542Z,53.53
2023-03-10T04:13:24.435Z,52.00
2023-03-10T04:16:00.539Z,41.70
2023-03-10T04:18:27.301Z,44.50
2023-03-10T04:20:53.964Z,49.47
2023-03-10T04:23:20.672Z,47.10
2023-03-10T04:25:47.370Z,51.33
2023-03-10T04:28:14.138Z,38.67
2023-03-10T04:30:45.373Z,45.53
2023-03-10T04:33:12.550Z,42.73
2023-03-10T04:35:44.081Z,44.20
2023-03-10T04:38:10.802Z,39.07
2023-03-10T04:40:37.551Z,40.53
2023-03-10T04:43:04.853Z,39.87
2023-03-10T04:45:31.794Z,36.10
2023-03-10T04:47:58.487Z,43.20
2023-03-10T04:50:25.335Z,48.97
2023-03-10T04:52:52.279Z,38.77
2023-03-10T04:55:19.430Z,33.93
2023-03-10T04:57:46.205Z,37.60
2023-03-10T05:00:13.198Z,42.03
2023-03-10T05:02:40.991Z,35.80
2023-03-10T05:05:08.019Z,37.10
2023-03-10T05:07:34.826Z,38.53
2023-03-10T05:10:01.564Z,33.97
2023-03-10T05:12:28.224Z,35.47
2023-03-10T05:14:55.058Z,27.00
2023-03-10T05:17:21.748Z,35.67
2023-03-10T05:19:48.487Z,28.93
2023-03-10T05:22:15.273Z,26.00
2023-03-10T05:24:42.868Z,29.00
2023-03-10T05:27:10.481Z,25.03
2023-03-10T05:29:39.217Z,29.97
2023-03-10T05:32:06.499Z,24.23
2023-03-10T05:34:33.266Z,21.50
2023-03-10T05:36:59.973Z,20.53
2023-03-10T05:39:26.754Z,24.20
2023-03-10T05:41:53.471Z,19.60
2023-03-10T05:44:20.202Z,21.93
2023-03-10T05:46:47.056Z,18.47
2023-03-10T05:49:13.788Z,21.10
2023-03-10T05:51:40.447Z,17.67
2023-03-10T05:54:07.273Z,19.57
2023-03-10T05:56:34.051Z,17.07
2023-03-10T05:59:00.891Z,20.10
2023-03-10T06:01:27.861Z,18.50
2023-03-10T06:03:54.597Z,17.50
2023-03-10T06:06:21.477Z,16.13
2023-03-10T06:08:48.302Z,14.83
2023-03-10T06:11:15.426Z,16.13
2023-03-10T06:13:42.268Z,15.60
2023-03-10T06:16:08.990Z,18.33
2023-03-10T06:18:35.754Z,16.17
2023-03-10T06:21:08.073Z,19.07
2023-03-10T06:23:35.469Z,20.33
2023-03-10T06:26:08.417Z,16.67
2023-03-10T06:28:37.829Z,15.37
2023-03-10T06:31:12.054Z,19.53
2023-03-10T06:33:38.705Z,18.17
2023-03-10T06:36:06.083Z,17.50
2023-03-10T06:38:32.786Z,16.57
2023-03-10T06:40:59.504Z,15.03
2023-03-10T06:43:26.253Z,16.50
2023-03-10T06:45:53.284Z,17.40
2023-03-10T06:48:20.010Z,13.70
2023-03-10T06:50:48.415Z,16.37
2023-03-10T06:53:18.210Z,18.87
2023-03-10T06:55:45.045Z,18.17
2023-03-10T06:58:12.075Z,15.87
2023-03-10T07:00:39.727Z,17.77
2023-03-10T07:03:06.759Z,17.33
2023-03-10T07:05:33.581Z,16.50
2023-03-10T07:08:00.265Z,18.30
2023-03-10T07:10:27.011Z,17.00
2023-03-10T07:12:56.656Z,22.97
2023-03-10T07:15:23.391Z,22.03
2023-03-10T07:17:50.326Z,21.07
2023-03-10T07:20:18.017Z,21.50
2023-03-10T07:22:45.094Z,19.80
2023-03-10T07:25:12.139Z,19.07
2023-03-10T07:27:38.789Z,17.40
2023-03-10T07:30:06.546Z,16.90
2023-03-10T07:32:33.716Z,19.47
2023-03-10T07:35:00.571Z,20.00
2023-03-10T07:37:27.365Z,22.43
2023-03-10T07:39:54.893Z,22.57
2023-03-10T07:42:22.284Z,20.57
2023-03-10T07:44:49.074Z,21.90
2023-03-10T07:47:15.806Z,26.33
2023-03-10T07:49:46.743Z,21.90
2023-03-10T07:52:18.348Z,19.97
2023-03-10T07:54:45.456Z,21.67
2023-03-10T07:57:15.952Z,21.17
2023-03-10T07:59:42.824Z,24.63
2023-03-10T08:02:13.051Z,21.83
2023-03-10T08:04:40.762Z,23.63
2023-03-10T08:07:08.564Z,27.27
2023-03-10T08:09:35.671Z,23.27
2023-03-10T08:12:03.548Z,22.93
2023-03-10T08:14:31.449Z,27.50
2023-03-10T08:16:58.279Z,38.90
2023-03-10T08:19:26.943Z,25.90
2023-03-10T08:21:57.827Z,29.43
2023-03-10T08:24:25.452Z,22.87
2023-03-10T08:26:52.168Z,29.30
2023-03-10T08:29:19.012Z,24.90
2023-03-10T08:31:45.812Z,24.30
2023-03-10T08:34:13.525Z,29.27
2023-03-10T08:36:40.439Z,29.50
2023-03-10T08:39:07.827Z,28.87
2023-03-10T08:41:42.687Z,33.40
2023-03-10T08:44:11.831Z,29.33
2023-03-10T08:46:38.727Z,27.87
2023-03-10T08:49:05.392Z,26.37
2023-03-10T08:51:32.056Z,25.23
2023-03-10T08:53:59.493Z,25.10
2023-03-10T08:56:26.754Z,24.90
2023-03-10T08:58:58.910Z,28.07
2023-03-10T09:01:28.140Z,30.43
2023-03-10T09:03:55.109Z,31.20
2023-03-10T09:06:21.950Z,29.50
2023-03-10T09:08:50.587Z,33.30
2023-03-10T09:11:31.515Z,34.53
2023-03-10T09:13:59.185Z,34.53
2023-03-10T09:16:26.905Z,27.17
2023-03-10T09:18:53.554Z,27.23
2023-03-10T09:21:20.401Z,36.63
2023-03-10T09:23:50.074Z,32.20
2023-03-10T09:26:16.735Z,25.63
2023-03-10T09:28:43.382Z,33.13
2023-03-10T09:31:16.069Z,36.83
2023-03-10T09:33:42.887Z,34.30
2023-03-10T09:36:09.781Z,37.37
2023-03-10T09:38:37.192Z,32.40
2023-03-10T09:41:37.723Z,32.57
2023-03-10T09:44:30.715Z,27.23
2023-03-10T09:47:24.235Z,36.73
2023-03-10T09:50:09.592Z,30.77
2023-03-10T09:53:13.874Z,35.77
2023-03-10T09:55:47.746Z,23.57
2023-03-10T09:58:33.888Z,29.67
2023-03-10T10:01:01.117Z,26.93
2023-03-10T10:03:52.110Z,25.07
2023-03-10T10:06:29.941Z,25.17
2023-03-10T10:09:04.599Z,25.23
2023-03-10T10:11:31.610Z,19.73
2023-03-10T10:14:22.244Z,20.27
2023-03-10T10:17:19.224Z,19.13
2023-03-10T10:19:47.859Z,18.17
2023-03-10T10:22:17.647Z,23.77
2023-03-10T10:25:02.534Z,23.83
2023-03-10T10:27:31.936Z,26.93
2023-03-10T10:29:58.646Z,22.17
2023-03-10T10:32:25.546Z,17.57
2023-03-10T10:35:11.910Z,20.73
2023-03-10T10:37:43.076Z,20.73
2023-03-10T10:40:24.702Z,19.13
2023-03-10T10:42:54.032Z,22.47
2023-03-10T10:45:33.396Z,22.70
2023-03-10T10:48:00.426Z,21.87
2023-03-10T10:50:30.133Z,21.60
2023-03-10T10:53:18.268Z,19.40
2023-03-10T10:55:47.791Z,21.87
2023-03-10T10:58:36.796Z,21.60
2023-03-10T11:01:07.060Z,19.43
2023-03-10T11:03:39.349Z,23.80
2023-03-10T11:06:14.791Z,24.13
2023-03-10T11:08:45.091Z,24.73
2023-03-10T11:11:24.505Z,19.30
2023-03-10T11:14:13.663Z,19.83
2023-03-10T11:16:49.173Z,19.50
2023-03-10T11:19:49.854Z,23.60
2023-03-10T11:22:28.580Z,25.07
2023-03-10T11:25:01.080Z,21.27
2023-03-10T11:27:42.598Z,21.87
2023-03-10T11:30:31.987Z,23.87
2023-03-10T11:33:13.775Z,23.10
2023-03-10T11:35:51.372Z,22.00
2023-03-10T11:38:42.441Z,23.77
2023-03-10T11:41:19.769Z,24.30
2023-03-10T11:44:21.614Z,23.70
2023-03-10T11:46:54.263Z,25.80
2023-03-10T11:49:26.904Z,20.00
2023-03-10T11:51:58.743Z,18.47
2023-03-10T11:54:34.411Z,19.17
2023-03-10T11:57:09.442Z,19.20
2023-03-10T11:59:40.539Z,20.47
2023-03-10T12:02:18.099Z,18.63
2023-03-10T12:05:13.703Z,16.50
2023-03-10T12:07:44.462Z,15.17
2023-03-10T12:10:11.152Z,17.77
2023-03-10T12:12:40.902Z,19.47
2023-03-10T12:15:19.639Z,13.70
2023-03-10T12:17:49.219Z,15.00
2023-03-10T12:20:18.936Z,13.27
2023-03-10T12:22:46.805Z,16.17
2023-03-10T12:25:33.170Z,15.90
2023-03-10T12:28:24.880Z,15.60
2023-03-10T12:31:10.669Z,19.87
2023-03-10T12:33:44.884Z,20.07
2023-03-10T12:36:31.711Z,12.70
2023-03-10T12:39:02.701Z,15.17
2023-03-10T12:41:41.123Z,22.63
2023-03-10T12:44:41.406Z,19.47
2023-03-10T12:47:08.190Z,20.63
2023-03-10T12:49:39.052Z,18.87
2023-03-10T12:52:19.676Z,16.60
2023-03-10T12:54:55.938Z,17.70
2023-03-10T12:57:25.063Z,15.87
2023-03-10T13:00:32.027Z,14.70
2023-03-10T13:03:16.924Z,17.83
2023-03-10T13:05:59.999Z,17.60
2023-03-10T13:08:59.255Z,17.73
2023-03-10T13:11:59.422Z,21.27
2023-03-10T13:14:41.467Z,15.67
2023-03-10T13:17:30.054Z,17.60
2023-03-10T13:20:12.562Z,15.00
2023-03-10T13:22:39.507Z,17.07
2023-03-10T13:25:14.418Z,20.80
2023-03-10T13:27:41.307Z,15.60
2023-03-10T13:30:14.256Z,13.97
2023-03-10T13:32:41.222Z,15.90
2023-03-10T13:35:29.219Z,16.67
2023-03-10T13:38:17.864Z,14.23
2023-03-10T13:41:06.458Z,17.90
2023-03-10T13:43:44.840Z,18.23
2023-03-10T13:46:26.355Z,13.37
2023-03-10T13:48:55.301Z,19.37
2023-03-10T13:51:23.206Z,15.37
2023-03-10T13:53:53.149Z,22.40
2023-03-10T13:56:35.784Z,17.97
2023-03-10T13:59:03.589Z,17.47
2023-03-10T14:01:39.078Z,19.93
2023-03-10T14:04:08.882Z,19.60
2023-03-10T14:06:36.811Z,20.90
2023-03-10T14:09:21.692Z,18.70
2023-03-10T14:11:49.960Z,18.87
2023-03-10T14:14:31.964Z,21.80
2023-03-10T14:17:28.793Z,20.30
2023-03-10T14:19:55.658Z,21.90
2023-03-10T14:22:43.631Z,20.13
2023-03-10T14:25:17.310Z,21.63
2023-03-10T14:27:48.377Z,19.53
2023-03-10T14:30:22.767Z,21.27
2023-03-10T14:32:49.960Z,21.93
2023-03-10T14:35:20.218Z,23.73
2023-03-10T14:37:48.507Z,23.57
2023-03-10T14:40:15.419Z,21.60
2023-03-10T14:42:43.204Z,19.80
2023-03-10T14:45:32.078Z,22.77
2023-03-10T14:48:01.618Z,21.63
2023-03-10T14:50:29.810Z,20.43
2023-03-10T14:52:56.492Z,24.77
2023-03-10T14:55:23.492Z,25.33
2023-03-10T14:57:59.352Z,23.60
2023-03-10T15:00:26.260Z,21.43
2023-03-10T15:02:52.960Z,29.97
2023-03-10T15:05:23.711Z,23.67
2023-03-10T15:07:52.733Z,23.97
2023-03-10T15:10:21.607Z,28.03
2023-03-10T15:12:51.003Z,22.63
2023-03-10T15:15:23.938Z,25.77
2023-03-10T15:17:51.759Z,26.27
2023-03-10T15:20:23.685Z,26.53
2023-03-10T15:22:51.661Z,24.10
2023-03-10T15:25:20.363Z,34.67
2023-03-10T15:27:48.438Z,30.47
2023-03-10T15:30:33.080Z,29.47
2023-03-10T15:32:59.829Z,33.40
2023-03-10T15:35:28.099Z,31.53
2023-03-10T15:37:55.625Z,33.97
2023-03-10T15:40:25.229Z,31.13
2023-03-10T15:42:52.373Z,23.70
2023-03-10T15:45:19.378Z,19.23
2023-03-10T15:47:47.300Z,19.83
2023-03-10T15:50:16.360Z,15.63
2023-03-10T15:52:51.876Z,9.03
2023-03-10T15:55:19.018Z,10.57
2023-03-10T15:57:48.257Z,9.60
2023-03-10T16:00:16.903Z,11.40
2023-03-10T16:02:47.350Z,9.47
2023-03-10T16:05:14.734Z,10.37
2023-03-10T16:07:41.497Z,12.67
2023-03-10T16:10:13.554Z,7.90
2023-03-10T16:12:40.588Z,12.00
2023-03-10T16:15:07.943Z,10.40
2023-03-10T16:17:34.721Z,10.10
2023-03-10T16:20:06.531Z,9.93
2023-03-10T16:22:33.430Z,8.67
2023-03-10T16:25:00.189Z,12.80
2023-03-10T16:27:26.860Z,13.07
2023-03-10T16:29:53.516Z,9.77
2023-03-10T16:32:20.253Z,10.37
2023-03-10T16:34:47.248Z,8.60
2023-03-10T16:37:13.996Z,11.33
2023-03-10T16:39:40.648Z,7.83
2023-03-10T16:42:07.475Z,8.10
2023-03-10T16:44:34.154Z,10.67
2023-03-10T16:47:00.829Z,15.70
2023-03-10T16:49:27.554Z,9.87
2023-03-10T16:51:54.229Z,12.57
2023-03-10T16:54:22.293Z,10.63
2023-03-10T16:56:51.035Z,14.63
2023-03-10T16:59:20.106Z,14.17
2023-03-10T17:01:48.091Z,14.23
2023-03-10T17:04:14.909Z,16.53
2023-03-10T17:06:41.981Z,13.23
2023-03-10T17:09:10.483Z,14.50
2023-03-10T17:11:39.991Z,19.67
2023-03-10T17:14:10.182Z,17.07
2023-03-10T17:16:37.948Z,12.67
2023-03-10T17:19:07.698Z,18.27
2023-03-10T17:21:37.928Z,15.37
2023-03-10T17:24:05.981Z,19.17
2023-03-10T17:26:33.013Z,18.07
2023-03-10T17:28:59.788Z,15.03
2023-03-10T17:31:28.296Z,12.00
2023-03-10T17:33:59.970Z,13.00
2023-03-10T17:36:27.421Z,13.50
2023-03-10T17:38:55.759Z,20.13
2023-03-10T17:41:22.608Z,13.07
2023-03-10T17:43:49.327Z,9.80
2023-03-10T17:46:18.871Z,8.50
2023-03-10T17:48:46.029Z,8.13
2023-03-10T17:51:16.824Z,10.03
2023-03-10T17:53:44.897Z,5.37
2023-03-10T17:56:12.661Z,5.70
2023-03-10T17:58:39.679Z,4.17
2023-03-10T18:01:34.065Z,3.00
2023-03-10T18:04:01.491Z,4.20
2023-03-10T18:06:32.041Z,2.93
2023-03-10T18:08:59.975Z,3.63
2023-03-10T18:11:27.657Z,2.93
2023-03-10T18:13:54.764Z,5.37
2023-03-10T18:16:27.556Z,6.13
2023-03-10T18:18:55.050Z,3.23
2023-03-10T18:21:22.055Z,3.03
2023-03-10T18:23:49.525Z,2.50
2023-03-10T18:26:19.024Z,4.83
2023-03-10T18:28:46.339Z,3.33
2023-03-10T18:31:19.665Z,3.50
2023-03-10T18:33:46.923Z,2.03
2023-03-10T18:36:14.778Z,5.43
2023-03-10T18:38:41.619Z,5.27
2023-03-10T18:41:08.284Z,6.07
2023-03-10T18:43:35.658Z,6.10
2023-03-10T18:46:03.012Z,5.37
2023-03-10T18:48:30.221Z,5.07
2023-03-10T18:50:58.538Z,6.53
2023-03-10T18:53:26.815Z,5.93
2023-03-10T18:55:53.940Z,5.80
2023-03-10T18:58:21.712Z,5.30
2023-03-10T19:00:51.557Z,8.57
2023-03-10T19:03:18.988Z,7.63
2023-03-10T19:05:45.924Z,6.63
2023-03-10T19:08:12.891Z,5.57
2023-03-10T19:10:40.366Z,6.80
2023-03-10T19:13:08.355Z,6.87
2023-03-10T19:15:37.785Z,4.83
2023-03-10T19:18:04.896Z,9.03
2023-03-10T19:20:31.607Z,8.37
2023-03-10T19:22:58.561Z,6.93
2023-03-10T19:25:25.217Z,4.87
2023-03-10T19:27:52.071Z,4.03
2023-03-10T19:30:22.732Z,5.57
2023-03-10T19:32:49.814Z,3.13
2023-03-10T19:35:18.569Z,2.00
2023-03-10T19:37:47.103Z,4.50
2023-03-10T19:40:17.239Z,5.60
2023-03-10T19:42:45.101Z,3.50
2023-03-10T19:45:17.149Z,4.93
2023-03-10T19:47:45.434Z,4.27
2023-03-10T19:50:15.175Z,5.10
2023-03-10T19:52:46.332Z,6.40
2023-03-10T19:55:19.438Z,5.33
2023-03-10T19:57:48.285Z,10.30
2023-03-10T20:00:17.388Z,9.20
2023-03-10T20:02:47.383Z,5.03
2023-03-10T20:05:15.846Z,7.83
2023-03-10T20:07:46.416Z,6.90
2023-03-10T20:10:15.542Z,9.70
2023-03-10T20:12:42.647Z,7.17
2023-03-10T20:15:10.251Z,4.07
2023-03-10T20:17:37.412Z,3.63
2023-03-10T20:20:10.407Z,5.03
2023-03-10T20:22:42.905Z,5.20
2023-03-10T20:25:12.248Z,5.10
2023-03-10T20:27:39.326Z,3.90
2023-03-10T20:30:36.127Z,3.47
2023-03-10T20:33:05.067Z,6.20
2023-03-10T20:35:32.987Z,5.67
2023-03-10T20:38:00.458Z,4.50
2023-03-10T20:40:27.869Z,4.97
2023-03-10T20:42:57.307Z,6.20
2023-03-10T20:45:24.236Z,6.80
2023-03-10T20:47:53.356Z,7.87
2023-03-10T20:50:20.786Z,5.50
2023-03-10T20:52:48.167Z,5.70
2023-03-10T20:55:24.902Z,6.13
2023-03-10T20:57:53.485Z,5.13
2023-03-10T21:00:22.803Z,3.30
2023-03-10T21:02:52.711Z,2.43
2023-03-10T21:05:20.570Z,2.67
2023-03-10T21:07:48.965Z,4.07
2023-03-10T21:10:16.908Z,4.17
2023-03-10T21:12:44.479Z,5.03
2023-03-10T21:15:13.909Z,4.30
2023-03-10T21:17:40.888Z,3.80
2023-03-10T21:20:08.993Z,4.40
2023-03-10T21:22:36.844Z,7.10
2023-03-10T21:25:06.784Z,6.50
2023-03-10T21:27:35.259Z,4.83
2023-03-10T21:30:09.375Z,8.23
2023-03-10T21:32:37.456Z,5.53
2023-03-10T21:35:04.704Z,5.40
2023-03-10T21:37:31.535Z,3.87
2023-03-10T21:39:58.324Z,3.70
2023-03-10T21:42:25.161Z,4.83
2023-03-10T21:44:54.279Z,4.63
2023-03-10T21:47:21.010Z,6.53
2023-03-10T21:49:47.954Z,8.20
2023-03-10T21:52:14.909Z,4.37
2023-03-10T21:54:42.956Z,4.23
2023-03-10T21:57:09.688Z,6.60
2023-03-10T21:59:36.589Z,4.43
2023-03-10T22:02:03.649Z,5.77
2023-03-10T22:04:30.704Z,4.27
2023-03-10T22:06:57.514Z,6.23
2023-03-10T22:09:24.197Z,5.47
2023-03-10T22:11:50.934Z,5.67
2023-03-10T22:14:17.750Z,4.83
2023-03-10T22:16:44.565Z,6.60
2023-03-10T22:19:11.226Z,9.30
2023-03-10T22:21:37.949Z,5.00
2023-03-10T22:24:04.904Z,4.87
2023-03-10T22:26:31.643Z,6.07
2023-03-10T22:29:00.289Z,3.77
2023-03-10T22:31:27.020Z,6.40
2023-03-10T22:33:53.722Z,7.87
2023-03-10T22:36:20.441Z,5.60
2023-03-10T22:38:47.123Z,6.00
2023-03-10T22:41:14.143Z,6.83
2023-03-10T22:43:41.427Z,6.47
2023-03-10T22:46:10.866Z,6.67
2023-03-10T22:48:37.880Z,4.90
2023-03-10T22:51:09.681Z,8.40
2023-03-10T22:53:38.101Z,5.20
2023-03-10T22:56:05.479Z,4.40
2023-03-10T22:58:32.479Z,10.57
2023-03-10T23:00:59.239Z,10.50
2023-03-10T23:03:26.072Z,6.40
2023-03-10T23:05:52.809Z,7.37
2023-03-10T23:08:19.650Z,9.00
2023-03-10T23:10:46.475Z,4.97
2023-03-10T23:13:15.544Z,6.47
2023-03-10T23:15:43.261Z,4.53
2023-03-10T23:18:10.938Z,5.83
2023-03-10T23:20:44.141Z,6.70
2023-03-10T23:23:14.592Z,8.53
2023-03-10T23:25:43.765Z,4.93
2023-03-10T23:28:11.445Z,7.73
2023-03-10T23:30:40.407Z,4.97
2023-03-10T23:33:07.801Z,12.23
2023-03-10T23:35:35.215Z,11.17
2023-03-10T23:38:04.021Z,6.23
2023-03-10T23:40:31.656Z,8.07
2023-03-10T23:43:00.102Z,9.97
2023-03-10T23:45:29.368Z,4.63
2023-03-10T23:47:58.380Z,5.20
2023-03-10T23:50:30.433Z,6.60
2023-03-10T23:52:57.519Z,13.57
2023-03-10T23:55:27.848Z,6.90
2023-03-10T23:57:54.799Z,11.97
